Marble Falls, TX (78654)

11:25 AM CST on February 23, 2017 (GMT -0600)
The Waterlands | | Change Station

Elev 837 ft 30.55 °N, 98.35 °W | Updated 14 seconds ago

Clear
Clear
84.4 °F
Feels Like 82 °F
N
2.0
Wind Variable Wind from South
Gusts 13.0 mph

Today
High -- | Low -- °F
--% Chance of Precip.
Yesterday
High -- | Low -- °F
Precip. -- in
Pressure 29.68 in
Visibility 10.0 miles
Clouds Clear
Heat Index 82 °F
Dew Point 38 °F
Humidity 19%
Rainfall 0.00 in
Snow Depth Not available.
7:05 AM 6:27 PM
Waning Crescent, 9% visible
METAR KBMQ 231653Z AUTO 17007KT 10SM CLR 26/07 A2972 RMK AO2 SLP049 T02560067
Pressure 29.68 in
Visibility 10.0 miles
Clouds Clear
Heat Index 82 °F
Dew Point 38 °F
Humidity 19%
Rainfall 0.00 in
Snow Depth Not available.
7:05 AM 6:27 PM
Waning Crescent, 9% visible
METAR KBMQ 231653Z AUTO 17007KT 10SM CLR 26/07 A2972 RMK AO2 SLP049 T02560067

Get Your Daily Forecast Email!

Thanks for signing up!

Be on the lookout for a verification email in your inbox.

You'll start receiving the daily forecast at 8 AM.

×

10-Day Weather Forecast

Almanac

Astronomy

Feb. 23, 2017 Rise Set
Actual Time
Civil Twilight
Nautical Twilight
Astronomical Twilight
Moon
Length of Visible Light
Length of Day
Tomorrow will be .
, % of the Moon is Illuminated

Today's Extremes

State Highs State Lows

Community

WunderPhotos

Upload Photos

1,962,540 photos uploaded!

WunderBlog® & News

Nearby

Air Quality

  Air Quality AQ Index Pollutant
Not available.

Snow Depth

Station Depth Elevation

Earthquake Activity

City Distance Mag. Time & Date
Minimum magnitude displayed is 2.5.

Coastal Water Temperatures

Place Temperature

Stations

Nearby Weather Stations

Station Location Temp. Windchill Dew Point Humidity Wind Precip. Elev Updated Type
                   

Watches & Warnings

There are currently no watches in effect.